Startpagina
METAR-TAF:

METAR-TAF

Vliegvelden :

Rarotonga, Cookeilanden

breedte: 21-12S, lengte: 159-49W, hoogte: 7 m

Actueel weer

Dit bericht is 6 minuten geleden gemaakt, om 01:00 UTC
Wind 11 kt uit het oosten met uitschieters tot 22 kt
Temperatuur 27°C
Vochtigheid 74%
Druk 1014 hPa
Zicht 10 km of meer
Verspreide wolken op 1500 ft
Verspreide wolken op 9000 ft
lichte regenbuien

METAR: NCRG 190100Z 08011G22KT 9999 -SHRA SCT015 SCT090 27/22 Q1014

Tijdstip: 15:06 (01:06 UTC)

Verwachting

Dit bericht is 2 uur en het 6 minuten geleden gemaakt, om 23:00 UTC
Verwachting geldig van 19 om 00 UTC tot 19 om 24 UTC
Wind 8 kt uit het oosten
Zicht 10 km of meer
Verspreide wolken op 1400 ft
Gebroken wolken op 4000 ft

TAF: NCRG 182300Z 1900/1924 10008KT 9999 SCT014 BKN040

Waarnemingen en weersverwachtingen van meer dan 4000 vliegvelden (METAR en TAF).

De beschikbare stations zijn de gele en rode punten op de kaart.

Ga met uw muis naar het station om de naam te zien.

Klik dan om waarnemingen en weersverwachtingen te zien.

kaart wijzigen: klik op de groene knoppen met een zwart kruis om in te zoomen, op de groene knop met een streepje om uit te zoomen of op de groene pijlen voor aangrenzende kaarten.


METAR-TAF: